Time;durP1;ratioP1;P1;durP2;ratioP2;P2;SDS_P1;SDS_P2;PMS_P1;PMS_P2;Temp;Humidity;BMP_temperature;BMP_pressure;BME280_temperature;BME280_humidity;BME280_pressure;Samples;Min_cycle;Max_cycle;Signal;HPM_P1;HPM_P2
2022/11/24 00:00:51;;;;;;;14.70;3.50;;;;;;;5.93;100.00;99243.38;5005589;28;20641;-66
2022/11/24 00:03:17;;;;;;;15.17;3.87;;;;;;;5.89;100.00;99244.44;5020293;28;20238;-65
2022/11/24 00:05:43;;;;;;;14.53;4.07;;;;;;;5.86;100.00;99243.75;5013649;28;20177;-65
2022/11/24 00:08:08;;;;;;;15.03;3.73;;;;;;;5.94;100.00;99247.56;5045462;28;20192;-64
2022/11/24 00:10:34;;;;;;;16.47;3.53;;;;;;;5.94;100.00;99249.28;5025299;28;20227;-65
2022/11/24 00:12:59;;;;;;;22.33;3.67;;;;;;;5.92;100.00;99244.25;5042408;28;20216;-65
2022/11/24 00:15:25;;;;;;;13.53;3.90;;;;;;;5.88;100.00;99252.13;5023560;28;20284;-64
2022/11/24 00:17:50;;;;;;;19.27;4.23;;;;;;;5.72;100.00;99252.88;5023311;28;20544;-65
2022/11/24 00:20:16;;;;;;;18.37;3.73;;;;;;;5.67;100.00;99252.28;5020995;28;20266;-66
2022/11/24 00:22:41;;;;;;;21.10;4.30;;;;;;;5.68;100.00;99256.50;5045183;28;20192;-65
2022/11/24 00:25:07;;;;;;;15.17;4.17;;;;;;;5.64;100.00;99260.91;5031340;28;20653;-65
2022/11/24 00:27:32;;;;;;;16.40;3.93;;;;;;;5.61;100.00;99261.06;5030678;28;20192;-64
2022/11/24 00:29:58;;;;;;;14.87;4.00;;;;;;;5.47;100.00;99259.16;5031251;28;20623;-64
2022/11/24 00:32:26;;;;;;;12.53;3.70;;;;;;;5.34;100.00;99258.06;5012831;28;20232;-63
2022/11/24 00:34:52;;;;;;;20.27;4.83;;;;;;;5.29;100.00;99263.38;5029903;28;20638;-63
2022/11/24 00:37:17;;;;;;;14.67;3.70;;;;;;;5.29;100.00;99268.47;5030255;28;20260;-64
2022/11/24 00:39:43;;;;;;;14.07;3.67;;;;;;;5.33;100.00;99270.00;5031419;28;20564;-64
2022/11/24 00:42:08;;;;;;;10.43;4.03;;;;;;;5.28;100.00;99278.75;5035983;28;20221;-64
2022/11/24 00:44:33;;;;;;;15.10;3.87;;;;;;;5.17;100.00;99280.09;5031138;28;20184;-63
2022/11/24 00:46:59;;;;;;;15.57;3.53;;;;;;;5.22;100.00;99284.97;5030425;28;20201;-64
2022/11/24 00:49:24;;;;;;;22.47;4.53;;;;;;;5.23;100.00;99296.81;5031086;28;20216;-64
2022/11/24 00:51:49;;;;;;;16.30;4.30;;;;;;;5.24;100.00;99292.56;5034136;28;20217;-63
2022/11/24 00:54:15;;;;;;;19.17;4.37;;;;;;;5.20;100.00;99294.41;5017551;28;20199;-63
2022/11/24 00:56:40;;;;;;;13.07;3.63;;;;;;;4.98;100.00;99297.91;5015866;28;20184;-63
2022/11/24 00:59:06;;;;;;;14.43;4.73;;;;;;;5.01;100.00;99299.50;5024728;28;20214;-64
2022/11/24 01:01:31;;;;;;;15.60;4.57;;;;;;;4.94;100.00;99298.94;5034726;28;20267;-64
2022/11/24 01:04:00;;;;;;;15.80;3.60;;;;;;;4.82;100.00;99302.03;5025713;28;20218;-64
2022/11/24 01:06:26;;;;;;;16.67;4.30;;;;;;;4.69;100.00;99307.66;5015525;28;20245;-64
2022/11/24 01:08:52;;;;;;;19.83;4.37;;;;;;;4.71;100.00;99309.31;5034201;28;20226;-64
2022/11/24 01:11:20;;;;;;;14.83;4.00;;;;;;;4.74;100.00;99316.81;5030401;28;20293;-64
2022/11/24 01:13:48;;;;;;;22.77;5.00;;;;;;;4.80;100.00;99317.38;5022431;28;20198;-64
2022/11/24 01:16:20;;;;;;;16.33;3.97;;;;;;;4.71;100.00;99320.31;5015658;28;20274;-67
2022/11/24 01:18:47;;;;;;;15.53;4.33;;;;;;;4.71;100.00;99322.88;5012975;28;20650;-66
2022/11/24 01:21:13;;;;;;;12.60;3.73;;;;;;;4.70;100.00;99331.41;5011980;28;20246;-64
2022/11/24 01:23:39;;;;;;;20.93;4.23;;;;;;;4.67;100.00;99339.19;5023962;28;20180;-63
2022/11/24 01:26:05;;;;;;;17.97;4.73;;;;;;;4.61;100.00;99330.06;5033701;28;20202;-64
2022/11/24 01:28:31;;;;;;;9.93;3.43;;;;;;;4.56;100.00;99326.06;5015889;28;20184;-64
2022/11/24 01:31:00;;;;;;;12.43;3.50;;;;;;;4.44;100.00;99332.50;5030213;28;20319;-65
2022/11/24 01:33:26;;;;;;;16.83;3.83;;;;;;;4.31;100.00;99325.38;5024746;28;20251;-65
2022/11/24 01:35:52;;;;;;;23.00;4.77;;;;;;;4.25;100.00;99330.72;5032534;28;20194;-65
2022/11/24 01:38:17;;;;;;;11.93;4.00;;;;;;;4.33;100.00;99327.88;5033156;28;20186;-64
2022/11/24 01:40:43;;;;;;;11.50;3.67;;;;;;;4.32;100.00;99332.13;5028496;28;20217;-64
2022/11/24 01:43:20;;;;;;;11.50;4.40;;;;;;;4.29;100.00;99336.50;5044351;28;20288;-65
2022/11/24 01:45:46;;;;;;;13.67;4.33;;;;;;;4.42;100.00;99337.66;5022145;28;20182;-65
2022/11/24 01:48:24;;;;;;;14.20;4.30;;;;;;;4.47;100.00;99334.94;5032704;28;20594;-64
2022/11/24 01:50:54;;;;;;;15.73;4.30;;;;;;;4.49;100.00;99336.53;5011731;28;20229;-63
2022/11/24 01:53:23;;;;;;;18.70;4.60;;;;;;;4.61;100.00;99349.63;5041019;28;20208;-63
2022/11/24 01:55:50;;;;;;;15.10;4.87;;;;;;;4.90;100.00;99340.75;5009773;28;20170;-63
2022/11/24 01:58:20;;;;;;;24.93;5.60;;;;;;;5.15;100.00;99344.78;5032841;28;20210;-64
2022/11/24 02:00:46;;;;;;;24.20;5.53;;;;;;;5.30;100.00;99340.72;5011149;28;20221;-64
2022/11/24 02:03:15;;;;;;;21.77;6.10;;;;;;;5.52;100.00;99343.13;5013206;28;20658;-65
2022/11/24 02:05:53;;;;;;;23.63;5.47;;;;;;;5.64;100.00;99350.22;5014408;28;20179;-66
2022/11/24 02:08:29;;;;;;;19.27;5.37;;;;;;;5.71;100.00;99348.19;5007661;28;20229;-63
2022/11/24 02:10:55;;;;;;;21.90;5.93;;;;;;;5.89;100.00;99354.19;5008468;28;20301;-64
2022/11/24 02:13:21;;;;;;;22.83;6.30;;;;;;;5.90;100.00;99347.34;5011474;28;20249;-64
2022/11/24 02:15:47;;;;;;;24.90;6.20;;;;;;;5.96;100.00;99352.16;4992503;28;20237;-65
2022/11/24 02:18:12;;;;;;;21.00;5.70;;;;;;;5.98;100.00;99346.09;4991800;28;20191;-65
2022/11/24 02:20:38;;;;;;;18.27;6.03;;;;;;;6.10;100.00;99341.31;4993143;28;20224;-65
2022/11/24 02:23:09;;;;;;;24.17;5.83;;;;;;;6.16;100.00;99348.69;5015897;28;20191;-64
2022/11/24 02:25:50;;;;;;;21.23;5.87;;;;;;;6.17;100.00;99349.53;4991399;28;20697;-66
2022/11/24 02:28:19;;;;;;;16.60;5.87;;;;;;;6.01;100.00;99351.97;5008118;28;20273;-65
2022/11/24 02:30:45;;;;;;;22.90;5.70;;;;;;;6.22;100.00;99347.56;4987602;28;20348;-64
2022/11/24 02:33:12;;;;;;;21.27;5.70;;;;;;;6.19;100.00;99351.09;4991134;28;20261;-64
2022/11/24 02:35:38;;;;;;;13.80;4.57;;;;;;;6.21;100.00;99349.28;4992033;28;20508;-65
2022/11/24 02:38:03;;;;;;;21.77;5.87;;;;;;;6.17;100.00;99347.78;4991038;28;20764;-66
2022/11/24 02:40:32;;;;;;;20.27;5.30;;;;;;;6.12;100.00;99348.00;4986415;28;20233;-63
2022/11/24 02:43:04;;;;;;;20.43;6.03;;;;;;;6.07;100.00;99347.41;5008455;28;20191;-64
2022/11/24 02:45:30;;;;;;;21.47;5.93;;;;;;;5.98;100.00;99343.56;4992977;28;20194;-63
2022/11/24 02:47:56;;;;;;;17.30;5.37;;;;;;;6.04;100.00;99341.59;4993022;28;20604;-63
2022/11/24 02:50:21;;;;;;;16.50;5.37;;;;;;;5.92;100.00;99345.56;5000278;28;20233;-64
2022/11/24 02:52:47;;;;;;;13.10;4.90;;;;;;;5.73;100.00;99343.03;4998855;28;20722;-65
2022/11/24 02:55:12;;;;;;;15.50;5.40;;;;;;;5.43;100.00;99352.03;4993100;28;20189;-64
2022/11/24 02:57:37;;;;;;;23.23;5.73;;;;;;;5.27;100.00;99359.53;4992619;28;20187;-64
2022/11/24 03:00:04;;;;;;;17.40;5.50;;;;;;;5.27;100.00;99364.63;4987065;28;20212;-64
2022/11/24 03:02:29;;;;;;;13.20;5.40;;;;;;;4.92;100.00;99364.44;4991383;28;20203;-64
2022/11/24 03:04:54;;;;;;;16.23;5.03;;;;;;;4.90;100.00;99373.03;4992587;28;20208;-64
2022/11/24 03:07:20;;;;;;;15.90;5.83;;;;;;;4.93;100.00;99373.75;4991185;28;20185;-63
2022/11/24 03:09:45;;;;;;;20.30;5.73;;;;;;;4.95;100.00;99371.97;5023778;28;20264;-63
2022/11/24 03:12:10;;;;;;;17.37;5.97;;;;;;;4.85;100.00;99370.72;5020471;28;20776;-64
2022/11/24 03:14:36;;;;;;;20.90;5.83;;;;;;;4.87;100.00;99376.56;5032069;28;20261;-65
2022/11/24 03:17:01;;;;;;;18.07;5.67;;;;;;;4.80;100.00;99375.16;5031475;28;20181;-64
2022/11/24 03:19:27;;;;;;;17.50;5.70;;;;;;;4.80;100.00;99367.50;5031691;28;20166;-64
2022/11/24 03:21:52;;;;;;;21.90;6.13;;;;;;;4.77;100.00;99375.28;5020916;28;20223;-64
2022/11/24 03:24:18;;;;;;;14.00;6.13;;;;;;;4.65;100.00;99363.88;5013929;28;20180;-64
2022/11/24 03:26:43;;;;;;;17.00;6.17;;;;;;;4.46;100.00;99361.28;5031496;28;20217;-64
2022/11/24 03:29:08;;;;;;;17.03;6.13;;;;;;;4.61;100.00;99363.19;5014063;28;20667;-64
2022/11/24 03:31:34;;;;;;;18.83;6.43;;;;;;;4.41;100.00;99368.28;5020874;28;20222;-64
2022/11/24 03:33:59;;;;;;;21.00;6.50;;;;;;;4.62;100.00;99369.94;5031169;28;20221;-64
2022/11/24 03:36:27;;;;;;;22.87;6.03;;;;;;;4.57;100.00;99363.41;5030854;28;20222;-64
2022/11/24 03:38:53;;;;;;;19.97;6.37;;;;;;;4.69;100.00;99366.25;5014087;28;20650;-65
2022/11/24 03:41:18;;;;;;;14.80;5.40;;;;;;;4.78;100.00;99369.31;5020957;28;20346;-64
2022/11/24 03:43:43;;;;;;;18.43;6.63;;;;;;;4.69;100.00;99363.72;5011419;28;20185;-65
2022/11/24 03:46:09;;;;;;;12.07;6.27;;;;;;;4.77;100.00;99376.13;5031541;28;20200;-64
2022/11/24 03:48:35;;;;;;;18.13;6.30;;;;;;;4.87;100.00;99371.47;5012884;28;20256;-63
2022/11/24 03:51:02;;;;;;;18.80;6.10;;;;;;;4.96;100.00;99365.97;5009898;28;20269;-64
2022/11/24 03:53:29;;;;;;;19.97;6.47;;;;;;;4.87;100.00;99370.66;5012977;28;20232;-63
2022/11/24 03:55:55;;;;;;;15.60;5.77;;;;;;;4.99;100.00;99381.13;5013894;28;20168;-64
2022/11/24 03:58:21;;;;;;;14.77;6.33;;;;;;;5.23;100.00;99386.06;5030428;28;20685;-63
2022/11/24 04:00:51;;;;;;;18.97;6.07;;;;;;;5.22;100.00;99384.41;4992907;28;20230;-64
2022/11/24 04:03:18;;;;;;;16.00;5.60;;;;;;;5.24;100.00;99379.25;5011723;28;20212;-64
2022/11/24 04:05:43;;;;;;;17.17;5.33;;;;;;;5.33;100.00;99392.41;5010387;28;20203;-64
2022/11/24 04:08:09;;;;;;;18.97;5.50;;;;;;;5.27;100.00;99397.78;5030750;28;20224;-63
2022/11/24 04:10:36;;;;;;;20.33;6.37;;;;;;;5.32;100.00;99392.47;5020850;28;20223;-64
2022/11/24 04:13:15;;;;;;;14.23;5.43;;;;;;;5.23;100.00;99392.88;5023356;28;20299;-65
2022/11/24 04:15:41;;;;;;;17.37;6.47;;;;;;;5.42;100.00;99401.38;5017499;28;20233;-63
2022/11/24 04:18:08;;;;;;;20.63;6.30;;;;;;;5.52;100.00;99394.16;5025810;28;20170;-64
2022/11/24 04:20:34;;;;;;;16.57;6.37;;;;;;;5.66;100.00;99399.44;5020901;28;20229;-64
2022/11/24 04:22:59;;;;;;;13.50;5.70;;;;;;;5.58;100.00;99398.13;5013210;28;20291;-63
2022/11/24 04:25:25;;;;;;;25.53;6.37;;;;;;;5.76;100.00;99397.31;5012307;28;20363;-63
2022/11/24 04:27:53;;;;;;;23.40;6.33;;;;;;;5.86;100.00;99394.34;5030972;28;20193;-63
2022/11/24 04:30:20;;;;;;;21.00;5.60;;;;;;;5.88;100.00;99398.47;5004427;28;20298;-64
2022/11/24 04:32:46;;;;;;;22.47;5.80;;;;;;;5.98;100.00;99394.63;5008929;28;20196;-63
2022/11/24 04:35:11;;;;;;;20.93;6.47;;;;;;;6.11;100.00;99394.84;5016110;28;20185;-64
2022/11/24 04:37:40;;;;;;;22.33;5.63;;;;;;;6.11;100.00;99399.97;5034323;28;20181;-65
2022/11/24 04:40:07;;;;;;;24.93;5.57;;;;;;;6.25;100.00;99401.03;5002855;28;20708;-64
2022/11/24 04:42:32;;;;;;;23.13;6.27;;;;;;;6.26;100.00;99411.19;5032200;28;20181;-64
2022/11/24 04:44:57;;;;;;;22.83;5.73;;;;;;;6.28;100.00;99406.00;5034598;28;20182;-64
2022/11/24 04:47:24;;;;;;;21.37;5.23;;;;;;;6.38;100.00;99407.22;5031689;28;20974;-64
2022/11/24 04:49:53;;;;;;;21.30;6.37;;;;;;;6.39;100.00;99406.31;5006694;28;20210;-63
2022/11/24 04:52:20;;;;;;;23.70;6.13;;;;;;;6.23;100.00;99402.84;5005494;28;20721;-63
2022/11/24 04:54:47;;;;;;;24.10;6.30;;;;;;;6.41;100.00;99407.09;5033240;28;20244;-63
2022/11/24 04:57:18;;;;;;;21.97;5.53;;;;;;;6.43;100.00;99415.47;5032132;28;20251;-64
2022/11/24 04:59:43;;;;;;;22.40;6.43;;;;;;;6.51;100.00;99412.56;5013243;28;20630;-64
2022/11/24 05:02:09;;;;;;;16.43;5.07;;;;;;;6.59;100.00;99414.75;5019926;28;20253;-64
2022/11/24 05:04:35;;;;;;;18.73;5.70;;;;;;;6.81;100.00;99423.91;5034395;28;20206;-63
2022/11/24 05:07:00;;;;;;;25.13;6.07;;;;;;;6.84;100.00;99421.19;5033743;28;20199;-64
2022/11/24 05:09:25;;;;;;;24.23;5.63;;;;;;;6.91;100.00;99422.56;5034252;28;20691;-63
2022/11/24 05:11:50;;;;;;;24.47;6.43;;;;;;;6.99;100.00;99424.72;5022648;28;20225;-64
2022/11/24 05:14:16;;;;;;;27.17;5.97;;;;;;;6.96;100.00;99425.69;5033585;28;20625;-63
2022/11/24 05:16:41;;;;;;;28.53;6.63;;;;;;;7.05;100.00;99424.41;5033850;28;20272;-65
2022/11/24 05:19:07;;;;;;;18.00;5.73;;;;;;;7.18;100.00;99439.94;5034242;28;20220;-65
2022/11/24 05:21:32;;;;;;;23.47;5.97;;;;;;;7.34;100.00;99437.44;5022098;28;20222;-63
2022/11/24 05:23:57;;;;;;;20.23;5.67;;;;;;;7.26;100.00;99430.97;5033963;28;20285;-64
2022/11/24 05:26:23;;;;;;;25.00;6.17;;;;;;;7.27;100.00;99436.94;5033123;28;20367;-64
2022/11/24 05:28:48;;;;;;;21.87;6.20;;;;;;;7.29;100.00;99447.88;5033877;28;20189;-64
2022/11/24 05:31:13;;;;;;;25.73;6.60;;;;;;;7.33;100.00;99440.88;5022763;28;20241;-63
2022/11/24 05:33:38;;;;;;;23.90;6.17;;;;;;;7.21;100.00;99447.47;5033457;28;20206;-64
2022/11/24 05:36:06;;;;;;;22.30;7.10;;;;;;;7.13;100.00;99447.03;5033277;28;20174;-64
2022/11/24 05:38:32;;;;;;;20.90;6.07;;;;;;;7.11;100.00;99450.47;5031910;28;20208;-64
2022/11/24 05:41:01;;;;;;;33.50;7.57;;;;;;;7.21;100.00;99447.47;5001274;28;20620;-65
2022/11/24 05:43:26;;;;;;;25.43;6.17;;;;;;;7.28;100.00;99456.47;5013685;28;20193;-66
2022/11/24 05:45:52;;;;;;;25.93;6.80;;;;;;;7.35;100.00;99447.56;5010979;28;20182;-65
2022/11/24 05:48:17;;;;;;;24.00;6.03;;;;;;;7.34;100.00;99458.72;5024397;28;20178;-64
2022/11/24 05:50:42;;;;;;;18.47;5.40;;;;;;;7.42;100.00;99453.22;5022856;28;20218;-65
2022/11/24 05:53:10;;;;;;;24.50;6.00;;;;;;;7.40;100.00;99458.41;5023803;28;20199;-64
2022/11/24 05:55:37;;;;;;;23.23;6.30;;;;;;;7.40;100.00;99455.84;5032007;28;20601;-64
2022/11/24 05:58:05;;;;;;;22.47;5.50;;;;;;;7.50;100.00;99452.81;5032420;28;20182;-68
2022/11/24 06:00:31;;;;;;;17.33;5.17;;;;;;;7.35;100.00;99451.88;5003339;28;20229;-64
2022/11/24 06:02:57;;;;;;;25.67;5.83;;;;;;;7.37;100.00;99450.06;5020069;28;20193;-65
2022/11/24 06:05:24;;;;;;;19.60;5.47;;;;;;;7.29;100.00;99458.13;5014146;28;20504;-65
2022/11/24 06:07:49;;;;;;;21.27;5.23;;;;;;;7.30;100.00;99462.34;5014939;28;20583;-64
2022/11/24 06:10:16;;;;;;;15.90;6.10;;;;;;;7.38;100.00;99456.81;5021690;28;20287;-64
2022/11/24 06:12:42;;;;;;;19.43;5.40;;;;;;;7.40;100.00;99458.41;5031865;28;20260;-64
2022/11/24 06:15:08;;;;;;;21.73;4.93;;;;;;;7.47;100.00;99458.06;5033015;28;20181;-63
2022/11/24 06:17:34;;;;;;;25.57;5.37;;;;;;;7.41;100.00;99459.25;5011437;28;20191;-64
2022/11/24 06:19:59;;;;;;;25.57;4.87;;;;;;;7.42;100.00;99466.00;5032142;28;20197;-63
2022/11/24 06:22:24;;;;;;;18.70;4.83;;;;;;;7.28;100.00;99469.25;5021550;28;20237;-64
2022/11/24 06:24:50;;;;;;;22.57;5.13;;;;;;;7.40;100.00;99471.19;5032833;28;20545;-64
2022/11/24 06:27:15;;;;;;;18.60;4.50;;;;;;;7.43;100.00;99472.78;5014554;28;20201;-64
2022/11/24 06:29:41;;;;;;;18.93;5.77;;;;;;;7.46;100.00;99470.06;5033021;28;20740;-64
2022/11/24 06:32:06;;;;;;;19.87;4.93;;;;;;;7.41;100.00;99472.03;5020908;28;20260;-63
2022/11/24 06:34:31;;;;;;;21.10;4.97;;;;;;;7.58;100.00;99471.97;5032647;28;20186;-64
2022/11/24 06:36:57;;;;;;;19.53;5.03;;;;;;;7.64;100.00;99470.00;5032277;28;20249;-65
2022/11/24 06:39:22;;;;;;;23.40;4.67;;;;;;;7.63;100.00;99474.31;5032483;28;20170;-64
2022/11/24 06:41:51;;;;;;;14.40;4.77;;;;;;;7.61;100.00;99468.44;5017384;28;20228;-65
2022/11/24 06:44:16;;;;;;;18.20;4.93;;;;;;;7.63;100.00;99476.88;5005454;28;20185;-66
2022/11/24 06:46:42;;;;;;;19.53;4.43;;;;;;;7.56;100.00;99475.53;5031654;28;20182;-66
2022/11/24 06:49:07;;;;;;;18.47;5.17;;;;;;;7.56;100.00;99475.53;5021414;28;20186;-66
2022/11/24 06:51:32;;;;;;;21.90;5.40;;;;;;;7.56;100.00;99484.03;5016567;28;20218;-65
2022/11/24 06:53:58;;;;;;;16.30;5.03;;;;;;;7.59;100.00;99481.31;5028550;28;20284;-65
2022/11/24 06:56:23;;;;;;;17.80;5.30;;;;;;;7.54;100.00;99478.19;5013024;28;20206;-65
2022/11/24 06:58:51;;;;;;;20.53;4.83;;;;;;;7.46;100.00;99480.28;5031697;28;20185;-65
2022/11/24 07:01:17;;;;;;;19.20;4.97;;;;;;;7.42;100.00;99486.50;5001407;28;20761;-66
2022/11/24 07:03:44;;;;;;;19.93;4.60;;;;;;;7.33;100.00;99489.50;5011089;28;20209;-65
2022/11/24 07:06:09;;;;;;;22.60;5.77;;;;;;;7.48;100.00;99498.13;4999036;28;20183;-64
2022/11/24 07:08:34;;;;;;;15.27;5.20;;;;;;;7.39;100.00;99510.50;5031249;28;20702;-64
2022/11/24 07:11:07;;;;;;;15.63;4.23;;;;;;;7.47;100.00;99511.81;5018116;28;20226;-64
2022/11/24 07:13:33;;;;;;;13.00;4.37;;;;;;;7.33;100.00;99513.38;5030850;28;20248;-64
2022/11/24 07:15:59;;;;;;;16.83;4.33;;;;;;;7.42;100.00;99517.19;5031376;28;20193;-65
2022/11/24 07:18:24;;;;;;;9.87;3.70;;;;;;;7.45;100.00;99522.13;5025560;28;20194;-64
2022/11/24 07:20:52;;;;;;;16.97;4.40;;;;;;;7.35;100.00;99526.88;5019176;28;20236;-65
2022/11/24 07:23:18;;;;;;;19.40;3.67;;;;;;;7.41;100.00;99533.44;5031040;28;20193;-66
2022/11/24 07:25:43;;;;;;;17.83;4.27;;;;;;;7.47;100.00;99524.63;5031816;28;20538;-66
2022/11/24 07:28:08;;;;;;;17.00;4.17;;;;;;;7.42;100.00;99532.53;5031141;28;20265;-58
2022/11/24 07:30:33;;;;;;;13.10;3.90;;;;;;;7.64;100.00;99534.00;5018834;28;20673;-58
2022/11/24 07:33:00;;;;;;;16.67;4.07;;;;;;;7.75;100.00;99539.38;5026774;28;20605;-58
2022/11/24 07:35:27;;;;;;;13.83;3.87;;;;;;;7.81;100.00;99540.81;5030074;28;20630;-65
2022/11/24 07:37:57;;;;;;;12.73;3.97;;;;;;;7.98;100.00;99548.44;5010251;28;20186;-66
2022/11/24 07:40:24;;;;;;;10.27;3.50;;;;;;;7.96;100.00;99557.94;5001730;28;20228;-66
2022/11/24 07:42:50;;;;;;;12.47;3.27;;;;;;;7.96;100.00;99563.03;5017798;28;20197;-65
2022/11/24 07:45:15;;;;;;;14.00;3.00;;;;;;;7.91;100.00;99562.47;5031635;28;20182;-70
2022/11/24 07:47:41;;;;;;;8.67;3.10;;;;;;;8.05;100.00;99564.28;5031356;28;20188;-66
2022/11/24 07:50:08;;;;;;;12.27;3.10;;;;;;;8.01;100.00;99567.94;5019083;28;20272;-66
2022/11/24 07:52:34;;;;;;;8.43;3.00;;;;;;;7.88;100.00;99572.88;5011612;28;20301;-67
2022/11/24 07:54:59;;;;;;;10.20;2.93;;;;;;;7.91;100.00;99565.88;5011872;28;20658;-65
2022/11/24 07:57:24;;;;;;;9.53;2.93;;;;;;;7.79;100.00;99566.50;5028458;28;20182;-66
2022/11/24 07:59:50;;;;;;;12.83;3.20;;;;;;;7.77;100.00;99582.84;5031372;28;20653;-66
2022/11/24 08:02:18;;;;;;;9.83;2.83;;;;;;;7.75;100.00;99586.31;4998117;28;20267;-65
2022/11/24 08:04:47;;;;;;;8.50;2.63;;;;;;;7.71;100.00;99589.91;5014693;28;20202;-66
2022/11/24 08:07:12;;;;;;;11.87;3.43;;;;;;;7.71;100.00;99589.91;5035054;28;20194;-66
2022/11/24 08:09:38;;;;;;;10.03;3.07;;;;;;;7.77;100.00;99600.78;5034538;28;20225;-67
2022/11/24 08:12:04;;;;;;;12.90;3.00;;;;;;;7.78;100.00;99605.81;5019548;28;20253;-65
2022/11/24 08:14:29;;;;;;;11.00;3.40;;;;;;;7.65;100.00;99603.03;5001314;28;20239;-65
2022/11/24 08:16:54;;;;;;;13.53;2.90;;;;;;;7.70;100.00;99613.03;5016169;28;20309;-65
2022/11/24 08:19:21;;;;;;;8.43;2.80;;;;;;;7.73;100.00;99612.91;5029180;28;20232;-65
2022/11/24 08:21:46;;;;;;;13.43;3.50;;;;;;;7.61;100.00;99616.91;5006426;28;20223;-65
2022/11/24 08:24:14;;;;;;;10.80;3.23;;;;;;;7.67;100.00;99628.56;5032263;28;20194;-66
2022/11/24 08:26:40;;;;;;;9.67;2.53;;;;;;;7.77;100.00;99632.31;5034631;28;20174;-65
2022/11/24 08:29:05;;;;;;;11.67;3.00;;;;;;;7.84;100.00;99628.53;5015599;28;20328;-67
2022/11/24 08:31:34;;;;;;;9.30;3.27;;;;;;;7.80;100.00;99629.63;4984616;28;20313;-66
2022/11/24 08:34:01;;;;;;;7.33;2.53;;;;;;;7.94;100.00;99628.91;5028419;28;20266;-66
2022/11/24 08:36:27;;;;;;;9.60;3.20;;;;;;;7.98;100.00;99625.28;5014232;28;20175;-67
2022/11/24 08:38:55;;;;;;;12.40;3.30;;;;;;;8.01;100.00;99619.16;5034839;28;20189;-67
2022/11/24 08:41:20;;;;;;;9.53;3.30;;;;;;;8.10;100.00;99613.56;5023711;28;20277;-66
2022/11/24 08:43:46;;;;;;;7.67;3.23;;;;;;;8.23;100.00;99619.69;5016885;28;20186;-67
2022/11/24 08:46:16;;;;;;;8.93;4.07;;;;;;;8.51;100.00;99625.97;5034511;28;20189;-66
2022/11/24 08:48:42;;;;;;;11.63;3.73;;;;;;;8.61;100.00;99630.59;5034435;28;20190;-67
2022/11/24 08:51:13;;;;;;;14.77;3.30;;;;;;;8.56;100.00;99631.66;5023208;28;20233;-66
2022/11/24 08:53:40;;;;;;;10.00;2.83;;;;;;;8.68;100.00;99639.59;5033273;28;20202;-67
2022/11/24 08:56:06;;;;;;;11.67;3.20;;;;;;;8.77;100.00;99639.13;4545864;28;29840;-67
2022/11/24 08:58:33;;;;;;;11.53;3.13;;;;;;;8.77;100.00;99643.41;5032163;28;20222;-67
2022/11/24 09:01:10;;;;;;;11.00;3.63;;;;;;;8.86;100.00;99654.00;5022700;28;20256;-67
2022/11/24 09:03:36;;;;;;;11.47;3.20;;;;;;;8.99;100.00;99646.47;5013405;28;20236;-67
2022/11/24 09:06:07;;;;;;;10.47;3.03;;;;;;;9.12;100.00;99651.75;5025105;28;20177;-67
2022/11/24 09:08:34;;;;;;;13.73;3.27;;;;;;;9.04;100.00;99657.31;5017553;28;20227;-68
2022/11/24 09:11:01;;;;;;;7.43;2.93;;;;;;;9.91;100.00;99654.97;4991107;28;20237;-67
2022/11/24 09:13:26;;;;;;;9.37;3.27;;;;;;;11.19;100.00;99658.34;5001166;28;20681;-66
2022/11/24 09:15:51;;;;;;;9.57;3.73;;;;;;;12.36;100.00;99640.31;4986579;28;20192;-68
2022/11/24 09:18:17;;;;;;;7.17;3.10;;;;;;;13.99;100.00;99638.94;4982049;28;20183;-67
2022/11/24 09:20:42;;;;;;;11.23;2.90;;;;;;;13.98;100.00;99648.47;4996196;28;20494;-68
2022/11/24 09:23:07;;;;;;;6.57;2.27;;;;;;;12.83;100.00;99652.56;5005403;28;20188;-67
2022/11/24 09:25:33;;;;;;;9.17;3.13;;;;;;;12.59;100.00;99661.94;4984284;28;20593;-66
2022/11/24 09:27:58;;;;;;;6.50;2.70;;;;;;;14.08;100.00;99651.19;4991725;28;20180;-66
2022/11/24 09:30:25;;;;;;;10.70;3.20;;;;;;;14.92;100.00;99665.44;4983059;28;20261;-68
2022/11/24 09:32:51;;;;;;;8.47;3.00;;;;;;;16.43;99.15;99662.56;5006085;28;20239;-66
2022/11/24 09:35:16;;;;;;;7.00;2.50;;;;;;;17.87;88.63;99675.88;4988180;28;20219;-67
2022/11/24 09:37:43;;;;;;;7.53;3.10;;;;;;;17.89;79.78;99671.34;4993551;28;20227;-66
2022/11/24 09:40:13;;;;;;;6.17;2.40;;;;;;;16.70;87.49;99679.31;5008936;28;20642;-67
2022/11/24 09:43:04;;;;;;;7.87;3.13;;;;;;;15.00;97.64;99682.00;5007475;28;20519;-66
2022/11/24 09:45:43;;;;;;;7.47;2.53;;;;;;;14.32;100.00;99684.69;4990203;28;20215;-64
2022/11/24 09:48:22;;;;;;;9.97;2.60;;;;;;;14.17;100.00;99683.28;4984919;28;20543;-65
2022/11/24 09:50:48;;;;;;;6.13;2.30;;;;;;;13.52;100.00;99691.50;4992257;28;20221;-66
2022/11/24 09:53:30;;;;;;;7.97;3.17;;;;;;;13.03;100.00;99695.84;5010866;28;20235;-69
2022/11/24 09:56:05;;;;;;;10.33;2.70;;;;;;;12.23;100.00;99701.38;4993261;28;20190;-65
2022/11/24 09:58:39;;;;;;;8.83;2.83;;;;;;;12.23;100.00;99701.38;4991268;28;20218;-64
2022/11/24 10:01:23;;;;;;;8.47;2.57;;;;;;;11.39;100.00;99701.69;5006880;28;20233;-66
2022/11/24 10:03:50;;;;;;;10.00;2.40;;;;;;;10.95;100.00;99705.31;5002696;28;20241;-65
2022/11/24 10:06:24;;;;;;;8.70;3.07;;;;;;;10.67;100.00;99714.75;4993034;28;20627;-70
2022/11/24 10:09:02;;;;;;;10.43;2.90;;;;;;;10.62;100.00;99707.31;5009436;28;20659;-66
2022/11/24 10:11:37;;;;;;;9.03;2.63;;;;;;;10.73;100.00;99710.97;5021078;28;20225;-65
2022/11/24 10:14:28;;;;;;;4.30;2.10;;;;;;;10.63;100.00;99713.28;5034011;28;20209;-66
2022/11/24 10:17:28;;;;;;;11.00;3.27;;;;;;;10.49;100.00;99717.53;5048142;28;20198;-65
2022/11/24 10:20:09;;;;;;;9.47;2.80;;;;;;;10.70;100.00;99717.13;5014130;28;20196;-65
2022/11/24 10:22:56;;;;;;;10.60;3.10;;;;;;;10.50;100.00;99723.50;4969684;28;20244;-66
2022/11/24 10:25:50;;;;;;;6.70;2.43;;;;;;;10.25;100.00;99719.78;4995424;28;20591;-64
2022/11/24 10:28:15;;;;;;;9.40;3.20;;;;;;;10.35;100.00;99722.63;4994930;28;20206;-63
2022/11/24 10:30:42;;;;;;;10.23;3.40;;;;;;;10.39;100.00;99723.31;5003470;28;20324;-65
2022/11/24 10:33:17;;;;;;;7.00;3.13;;;;;;;10.27;100.00;99723.09;5011593;28;20199;-66
2022/11/24 10:35:57;;;;;;;4.67;1.93;;;;;;;10.19;100.00;99720.13;5011510;28;20178;-65
2022/11/24 10:38:41;;;;;;;9.37;2.60;;;;;;;10.14;100.00;99725.53;5012593;28;20715;-65
2022/11/24 10:41:15;;;;;;;9.07;2.40;;;;;;;10.08;100.00;99722.53;5009364;28;20221;-64
2022/11/24 10:43:41;;;;;;;9.77;2.57;;;;;;;10.09;100.00;99724.19;5014347;28;20708;-64
2022/11/24 10:46:18;;;;;;;7.30;2.43;;;;;;;10.10;100.00;99726.66;5048018;28;20185;-65
2022/11/24 10:48:51;;;;;;;7.10;2.30;;;;;;;10.15;100.00;99731.53;5006106;28;20189;-64
2022/11/24 10:51:42;;;;;;;5.80;3.00;;;;;;;9.92;100.00;99732.84;5024429;28;20771;-64
2022/11/24 10:54:22;;;;;;;6.77;2.73;;;;;;;10.19;100.00;99725.28;5014159;28;20210;-64
2022/11/24 10:56:50;;;;;;;7.97;2.50;;;;;;;10.33;100.00;99732.16;5004093;28;20186;-62
2022/11/24 10:59:31;;;;;;;12.60;2.70;;;;;;;10.41;100.00;99737.72;5014537;28;20194;-64
2022/11/24 11:01:57;;;;;;;7.90;2.53;;;;;;;10.63;100.00;99737.25;5031924;28;20229;-63
2022/11/24 11:04:34;;;;;;;4.57;2.37;;;;;;;10.75;100.00;99742.56;5031444;28;20213;-65
2022/11/24 11:07:19;;;;;;;8.43;2.17;;;;;;;10.95;100.00;99739.63;5031700;28;20182;-64
2022/11/24 11:09:46;;;;;;;5.00;1.70;;;;;;;11.09;100.00;99732.78;5011657;28;20226;-65
2022/11/24 11:12:22;;;;;;;7.37;2.13;;;;;;;11.07;100.00;99735.44;5020173;28;20236;-64
2022/11/24 11:14:49;;;;;;;8.77;2.87;;;;;;;11.38;100.00;99740.41;5014219;28;20185;-65
2022/11/24 11:17:37;;;;;;;7.40;2.30;;;;;;;11.51;100.00;99741.28;5047040;28;20209;-65
2022/11/24 11:20:15;;;;;;;7.17;2.30;;;;;;;11.46;100.00;99739.00;5026147;28;20185;-66
2022/11/24 11:22:42;;;;;;;7.33;2.33;;;;;;;11.55;100.00;99754.81;5045459;28;20189;-65
2022/11/24 11:25:21;;;;;;;8.67;2.30;;;;;;;11.40;100.00;99752.28;5031842;28;20190;-59
2022/11/24 11:27:47;;;;;;;8.47;2.30;;;;;;;11.59;100.00;99756.25;5027788;28;20668;-62
2022/11/24 11:30:17;;;;;;;7.37;1.80;;;;;;;11.48;100.00;99758.69;5002010;28;20194;-64